createdAt,value
2018-10-18T00:01:59.134Z,102225.34
2018-10-18T00:04:28.171Z,102224.66
2018-10-18T00:06:57.242Z,102220.95
2018-10-18T00:09:26.319Z,102226.17
2018-10-18T00:11:55.397Z,102221.92
2018-10-18T00:14:24.431Z,102228.95
2018-10-18T00:16:53.476Z,102228.33
2018-10-18T00:19:22.497Z,102223.48
2018-10-18T00:21:51.522Z,102228.41
2018-10-18T00:24:20.562Z,102224.82
2018-10-18T00:26:49.599Z,102225.83
2018-10-18T00:29:18.646Z,102230.48
2018-10-18T00:31:49.010Z,102230.96
2018-10-18T00:34:18.070Z,102236.83
2018-10-18T00:36:47.129Z,102236.00
2018-10-18T00:39:16.157Z,102241.34
2018-10-18T00:41:45.255Z,102238.02
2018-10-18T00:44:14.317Z,102238.91
2018-10-18T00:46:43.278Z,102238.59
2018-10-18T00:49:12.383Z,102241.47
2018-10-18T00:51:41.354Z,102246.05
2018-10-18T00:54:10.482Z,102247.55
2018-10-18T00:56:39.450Z,102256.66
2018-10-18T00:59:08.529Z,102255.38
2018-10-18T01:01:37.571Z,102255.58
2018-10-18T01:04:06.680Z,102256.05
2018-10-18T01:06:35.713Z,102264.56
2018-10-18T01:09:06.511Z,102256.33
2018-10-18T01:11:35.580Z,102256.81
2018-10-18T01:14:04.910Z,102253.48
2018-10-18T01:16:33.934Z,102256.63
2018-10-18T01:19:03.394Z,102252.48
2018-10-18T01:21:32.463Z,102253.33
2018-10-18T01:24:01.548Z,102254.69
2018-10-18T01:26:30.598Z,102255.05
2018-10-18T01:28:59.653Z,102248.60
2018-10-18T01:31:28.914Z,102254.78
2018-10-18T01:33:59.992Z,102254.41
2018-10-18T01:36:29.059Z,102257.10
2018-10-18T01:38:58.089Z,102255.50
2018-10-18T01:41:27.134Z,102254.42
2018-10-18T01:43:56.198Z,102251.98
2018-10-18T01:46:25.218Z,102252.05
2018-10-18T01:48:54.285Z,102254.42
2018-10-18T01:51:23.310Z,102261.83
2018-10-18T01:53:52.401Z,102252.45
2018-10-18T01:56:21.421Z,102255.22
2018-10-18T01:58:50.518Z,102248.92
2018-10-18T02:01:19.549Z,102256.63
2018-10-18T02:03:48.595Z,102253.13
2018-10-18T02:06:17.751Z,102249.36
2018-10-18T02:08:46.733Z,102244.19
2018-10-18T02:11:15.983Z,102241.50
2018-10-18T02:13:45.098Z,102246.86
2018-10-18T02:16:14.086Z,102235.00
2018-10-18T02:18:43.121Z,102244.05
2018-10-18T02:21:12.181Z,102240.72
2018-10-18T02:23:41.219Z,102246.73
2018-10-18T02:26:10.283Z,102246.48
2018-10-18T02:28:39.366Z,102249.96
2018-10-18T02:31:08.406Z,102255.27
2018-10-18T02:33:37.474Z,102248.54
2018-10-18T02:36:07.495Z,102249.50
2018-10-18T02:38:36.526Z,102252.90
2018-10-18T02:41:05.619Z,102246.28
2018-10-18T02:43:34.806Z,102242.84
2018-10-18T02:46:03.822Z,102248.48
2018-10-18T02:48:32.883Z,102244.12
2018-10-18T02:51:01.960Z,102237.71
2018-10-18T02:53:30.994Z,102241.23
2018-10-18T02:56:00.021Z,102247.23
2018-10-18T02:58:29.054Z,102245.44
2018-10-18T03:00:58.119Z,102248.73
2018-10-18T03:03:27.176Z,102248.26
2018-10-18T03:05:56.232Z,102253.70
2018-10-18T03:08:26.338Z,102257.52
2018-10-18T03:10:55.463Z,102257.44
2018-10-18T03:13:24.530Z,102267.58
2018-10-18T03:15:53.633Z,102264.05
2018-10-18T03:18:22.740Z,102266.47
2018-10-18T03:20:51.766Z,102266.43
2018-10-18T03:23:20.822Z,102268.92
2018-10-18T03:25:49.890Z,102271.22
2018-10-18T03:28:18.937Z,102272.75
2018-10-18T03:30:48.759Z,102272.27
2018-10-18T03:33:17.804Z,102274.31
2018-10-18T03:35:46.834Z,102276.28
2018-10-18T03:38:15.915Z,102282.09
2018-10-18T03:40:44.957Z,102277.61
2018-10-18T03:43:13.964Z,102276.58
2018-10-18T03:45:43.025Z,102277.27
2018-10-18T03:48:12.082Z,102275.86
2018-10-18T03:50:41.114Z,102283.44
2018-10-18T03:53:10.166Z,102283.23
2018-10-18T03:55:39.202Z,102279.31
2018-10-18T03:58:09.206Z,102280.84
2018-10-18T04:00:38.231Z,102280.27
2018-10-18T04:03:07.858Z,102275.91
2018-10-18T04:05:36.900Z,102285.25
2018-10-18T04:08:06.089Z,102287.77
2018-10-18T04:10:35.133Z,102285.89
2018-10-18T04:13:04.212Z,102281.84
2018-10-18T04:15:33.233Z,102285.61
2018-10-18T04:18:02.362Z,102279.15
2018-10-18T04:20:31.319Z,102283.76
2018-10-18T04:23:00.367Z,102289.25
2018-10-18T04:25:29.420Z,102285.64
2018-10-18T04:27:58.442Z,102285.20
2018-10-18T04:30:27.506Z,102278.73
2018-10-18T04:32:56.565Z,102281.91
2018-10-18T04:35:25.641Z,102283.91
2018-10-18T04:37:54.750Z,102284.75
2018-10-18T04:40:23.787Z,102283.59
2018-10-18T04:42:52.833Z,102283.91
2018-10-18T04:45:21.901Z,102286.84
2018-10-18T04:47:51.095Z,102289.04
2018-10-18T04:50:20.026Z,102291.00
2018-10-18T04:52:49.112Z,102285.74
2018-10-18T04:55:18.271Z,102286.27
2018-10-18T04:57:47.273Z,102291.53
2018-10-18T05:00:16.311Z,102290.87
2018-10-18T05:02:45.422Z,102290.03
2018-10-18T05:05:25.666Z,102287.39
2018-10-18T05:07:54.723Z,102293.37
2018-10-18T05:10:24.679Z,102292.40
2018-10-18T05:12:53.725Z,102294.44
2018-10-18T05:15:22.740Z,102301.17
2018-10-18T05:17:51.816Z,102297.72
2018-10-18T05:20:20.850Z,102301.78
2018-10-18T05:22:49.875Z,102298.16
2018-10-18T05:25:19.070Z,102308.80
2018-10-18T05:27:48.150Z,102304.95
2018-10-18T05:30:17.195Z,102299.60
2018-10-18T05:32:46.346Z,102303.02
2018-10-18T05:35:15.449Z,102306.02
2018-10-18T05:37:44.616Z,102308.55
2018-10-18T05:40:13.646Z,102306.11
2018-10-18T05:42:42.714Z,102306.42
2018-10-18T05:45:11.774Z,102313.81
2018-10-18T05:47:41.147Z,102312.92
2018-10-18T05:50:10.787Z,102321.70
2018-10-18T05:52:40.091Z,102324.27
2018-10-18T05:55:10.790Z,102322.51
2018-10-18T05:57:40.543Z,102330.21
2018-10-18T06:00:11.554Z,102329.69
2018-10-18T06:02:41.200Z,102328.80
2018-10-18T06:05:11.398Z,102331.77
2018-10-18T06:07:40.585Z,102339.39
2018-10-18T06:10:22.776Z,102338.55
2018-10-18T06:12:52.235Z,102340.98
2018-10-18T06:15:21.708Z,102337.50
2018-10-18T06:17:50.754Z,102341.75
2018-10-18T06:20:21.399Z,102348.93
2018-10-18T06:22:50.507Z,102357.03
2018-10-18T06:25:19.517Z,102358.36
2018-10-18T06:27:48.565Z,102353.62
2018-10-18T06:30:17.895Z,102359.60
2018-10-18T06:32:46.953Z,102357.03
2018-10-18T06:35:16.635Z,102358.16
2018-10-18T06:37:45.719Z,102362.77
2018-10-18T06:40:16.142Z,102359.08
2018-10-18T06:42:45.222Z,102362.77
2018-10-18T06:45:15.580Z,102362.25
2018-10-18T06:47:45.016Z,102367.70
2018-10-18T06:50:15.108Z,102372.39
2018-10-18T06:52:44.203Z,102379.66
2018-10-18T06:55:13.503Z,102376.64
2018-10-18T06:57:42.923Z,102376.88
2018-10-18T07:00:15.267Z,102376.17
2018-10-18T07:02:44.767Z,102378.42
2018-10-18T07:05:14.938Z,102386.14
2018-10-18T07:07:44.628Z,102387.97
2018-10-18T07:10:15.252Z,102387.97
2018-10-18T07:12:44.295Z,102395.23
2018-10-18T07:15:14.462Z,102403.58
2018-10-18T07:17:44.165Z,102405.88
2018-10-18T07:20:13.874Z,102411.20
2018-10-18T07:22:43.057Z,102411.08
2018-10-18T07:25:13.421Z,102414.93
2018-10-18T07:27:42.826Z,102412.59
2018-10-18T07:30:13.124Z,102421.52
2018-10-18T07:32:42.373Z,102417.00
2018-10-18T07:35:12.777Z,102418.91
2018-10-18T07:37:41.735Z,102411.41
2018-10-18T07:40:13.249Z,102418.95
2018-10-18T07:42:42.351Z,102421.03
2018-10-18T07:45:12.644Z,102425.58
2018-10-18T07:47:42.380Z,102427.02
2018-10-18T07:50:12.906Z,102436.09
2018-10-18T07:52:41.983Z,102432.11
2018-10-18T07:55:11.471Z,102432.50
2018-10-18T07:57:40.506Z,102436.41
2018-10-18T08:00:11.926Z,102431.45
2018-10-18T08:02:41.423Z,102437.35
2018-10-18T08:05:11.146Z,102433.28
2018-10-18T08:07:40.174Z,102442.59
2018-10-18T08:10:13.044Z,102436.31
2018-10-18T08:12:42.107Z,102439.81
2018-10-18T08:15:12.467Z,102440.13
2018-10-18T08:17:42.088Z,102441.11
2018-10-18T08:20:12.702Z,102445.91
2018-10-18T08:22:42.520Z,102445.82
2018-10-18T08:25:11.637Z,102447.34
2018-10-18T08:27:40.602Z,102443.48
2018-10-18T08:30:11.461Z,102447.44
2018-10-18T08:32:40.753Z,102448.89
2018-10-18T08:35:10.877Z,102448.89
2018-10-18T08:37:40.015Z,102451.91
2018-10-18T08:40:09.167Z,102455.63
2018-10-18T08:42:38.226Z,102450.17
2018-10-18T08:45:08.251Z,102451.88
2018-10-18T08:47:38.092Z,102458.92
2018-10-18T08:50:09.143Z,102453.24
2018-10-18T08:52:38.407Z,102450.88
2018-10-18T08:55:09.309Z,102461.63
2018-10-18T08:57:38.369Z,102460.51
2018-10-18T09:00:12.981Z,102459.14
2018-10-18T09:02:42.830Z,102460.26
2018-10-18T09:05:12.174Z,102460.91
2018-10-18T09:07:41.298Z,102460.84
2018-10-18T09:10:10.407Z,102468.20
2018-10-18T09:12:39.534Z,102462.73
2018-10-18T09:15:09.641Z,102447.33
2018-10-18T09:17:39.029Z,102468.38
2018-10-18T09:20:13.454Z,102474.09
2018-10-18T09:22:42.618Z,102475.23
2018-10-18T09:25:12.310Z,102474.45
2018-10-18T09:27:41.678Z,102485.71
2018-10-18T09:30:17.564Z,102483.67
2018-10-18T09:32:47.651Z,102488.42
2018-10-18T09:35:16.702Z,102490.85
2018-10-18T09:37:45.835Z,102490.80
2018-10-18T09:40:15.634Z,102497.59
2018-10-18T09:42:44.708Z,102496.95
2018-10-18T09:45:13.963Z,102490.05
2018-10-18T09:47:43.121Z,102496.30
2018-10-18T09:50:13.980Z,102491.98
2018-10-18T09:52:43.043Z,102494.50
2018-10-18T09:55:13.215Z,102495.56
2018-10-18T09:57:42.291Z,102495.63
2018-10-18T10:00:16.812Z,102498.54
2018-10-18T10:02:55.935Z,102491.41
2018-10-18T10:05:25.953Z,102490.95
2018-10-18T10:08:02.596Z,102493.92
2018-10-18T10:10:32.664Z,102496.12
2018-10-18T10:13:01.862Z,102499.25
2018-10-18T10:15:30.994Z,102504.05
2018-10-18T10:18:00.088Z,102499.66
2018-10-18T10:20:29.191Z,102496.55
2018-10-18T10:23:01.722Z,102497.78
2018-10-18T10:25:39.253Z,102500.58
2018-10-18T10:28:09.457Z,102488.95
2018-10-18T10:30:45.279Z,102494.48
2018-10-18T10:33:14.555Z,102491.91
2018-10-18T10:35:48.569Z,102492.73
2018-10-18T10:38:19.202Z,102491.17
2018-10-18T10:40:49.432Z,102500.10
2018-10-18T10:43:19.253Z,102494.20
2018-10-18T10:45:49.554Z,102492.75
2018-10-18T10:48:18.752Z,102483.59
2018-10-18T10:50:51.716Z,102487.39
2018-10-18T10:53:23.179Z,102488.02
2018-10-18T10:56:01.234Z,102487.00
2018-10-18T11:01:34.236Z,102494.58
2018-10-18T11:04:03.385Z,102489.11
2018-10-18T11:06:32.533Z,102490.44
2018-10-18T11:09:05.605Z,102490.43
2018-10-18T11:11:38.054Z,102481.63
2018-10-18T11:14:14.275Z,102491.34
2018-10-18T11:16:43.290Z,102480.54
2018-10-18T11:19:14.707Z,102482.84
2018-10-18T11:21:47.502Z,102469.11
2018-10-18T11:24:22.837Z,102476.67
2018-10-18T11:26:55.592Z,102476.31
2018-10-18T11:29:27.429Z,102473.54
2018-10-18T11:31:56.611Z,102476.50
2018-10-18T11:34:30.371Z,102476.22
2018-10-18T11:37:01.149Z,102472.89
2018-10-18T11:39:40.001Z,102469.74
2018-10-18T11:42:10.091Z,102466.90
2018-10-18T11:45:31.417Z,102468.45
2018-10-18T11:48:07.548Z,102468.45
2018-10-18T11:50:37.645Z,102461.17
2018-10-18T11:53:08.368Z,102463.05
2018-10-18T11:55:43.267Z,102463.61
2018-10-18T11:58:19.691Z,102459.73
2018-10-18T12:01:00.219Z,102460.42
2018-10-18T12:03:35.147Z,102462.38
2018-10-18T12:06:07.146Z,102464.91
2018-10-18T12:08:37.239Z,102457.76
2018-10-18T12:11:07.394Z,102462.75
2018-10-18T12:13:42.083Z,102416.89
2018-10-18T12:16:13.328Z,102454.06
2018-10-18T12:18:44.171Z,102457.13
2018-10-18T12:21:13.384Z,102451.17
2018-10-18T12:23:52.973Z,102444.94
2018-10-18T12:26:22.203Z,102445.09
2018-10-18T12:29:09.514Z,102449.61
2018-10-18T12:31:38.594Z,102450.03
2018-10-18T12:34:08.876Z,102447.75
2018-10-18T12:36:38.008Z,102453.69
2018-10-18T12:39:10.037Z,102455.42
2018-10-18T12:41:39.184Z,102454.27
2018-10-18T12:44:08.884Z,102453.47
2018-10-18T12:46:40.164Z,102445.08
2018-10-18T12:49:16.759Z,102444.05
2018-10-18T12:51:48.675Z,102442.30
2018-10-18T12:54:18.560Z,102440.77
2018-10-18T12:56:47.706Z,102450.77
2018-10-18T13:05:16.594Z,102448.98
2018-10-18T13:07:58.208Z,102450.53
2018-10-18T13:10:35.752Z,102449.79
2018-10-18T13:13:05.044Z,102450.91
2018-10-18T13:15:35.237Z,102449.27
2018-10-18T13:18:04.780Z,102453.14
2018-10-18T13:20:34.538Z,102448.45
2018-10-18T13:23:03.694Z,102452.52
2018-10-18T13:25:32.853Z,102450.30
2018-10-18T13:28:04.038Z,102454.20
2018-10-18T13:30:33.615Z,102453.55
2018-10-18T13:33:03.094Z,102452.05
2018-10-18T13:35:32.192Z,102448.43
2018-10-18T13:38:01.788Z,102443.87
2018-10-18T13:40:30.889Z,102437.61
2018-10-18T13:43:00.916Z,102445.69
2018-10-18T13:45:30.219Z,102435.44
2018-10-18T13:47:59.380Z,102437.30
2018-10-18T13:50:28.921Z,102443.20
2018-10-18T13:53:03.966Z,102440.77
2018-10-18T13:55:33.124Z,102435.69
2018-10-18T13:58:02.472Z,102431.73
2018-10-18T14:00:32.127Z,102430.91
2018-10-18T14:03:03.126Z,102428.05
2018-10-18T14:05:32.758Z,102429.58
2018-10-18T14:08:02.079Z,102425.59
2018-10-18T14:10:31.128Z,102430.53
2018-10-18T14:13:01.169Z,102430.55
2018-10-18T14:15:30.272Z,102429.61
2018-10-18T14:17:59.952Z,102432.38
2018-10-18T14:20:28.950Z,102432.78
2018-10-18T14:22:58.136Z,102432.20
2018-10-18T14:25:28.238Z,102426.59
2018-10-18T14:27:57.371Z,102420.00
2018-10-18T14:30:28.233Z,102420.83
2018-10-18T14:32:57.378Z,102429.45
2018-10-18T14:35:26.511Z,102425.55
2018-10-18T14:37:55.658Z,102422.45
2018-10-18T14:40:25.006Z,102422.48
2018-10-18T14:43:02.499Z,102422.98
2018-10-18T14:45:36.107Z,102427.57
2018-10-18T14:48:11.007Z,102429.09
2018-10-18T14:50:41.899Z,102431.09
2018-10-18T14:56:42.542Z,102423.31
2018-10-18T14:59:19.067Z,102428.92
2018-10-18T15:01:53.981Z,102420.66
2018-10-18T15:04:27.698Z,102392.57
2018-10-18T15:10:14.742Z,102428.17
2018-10-18T15:12:44.874Z,102426.92
2018-10-18T15:15:14.646Z,102425.48
2018-10-18T15:17:43.879Z,102425.50
2018-10-18T15:20:24.277Z,102424.08
2018-10-18T15:22:53.413Z,102420.76
2018-10-18T15:25:24.491Z,102419.92
2018-10-18T15:27:53.644Z,102414.89
2018-10-18T15:30:26.404Z,102416.74
2018-10-18T15:32:55.723Z,102415.34
2018-10-18T15:35:28.165Z,102413.06
2018-10-18T15:37:57.402Z,102408.80
2018-10-18T15:40:28.363Z,102420.24
2018-10-18T15:42:58.038Z,102414.59
2018-10-18T15:45:31.132Z,102416.56
2018-10-18T15:48:00.383Z,102416.35
2018-10-18T15:50:30.713Z,102418.76
2018-10-18T15:53:00.132Z,102419.81
2018-10-18T15:55:30.350Z,102417.75
2018-10-18T15:57:59.659Z,102416.98
2018-10-18T16:00:43.731Z,102421.33
2018-10-18T16:03:13.030Z,102423.89
2018-10-18T16:05:42.264Z,102422.51
2018-10-18T16:08:11.494Z,102426.87
2018-10-18T16:10:40.717Z,102427.95
2018-10-18T16:13:22.008Z,102431.03
2018-10-18T16:15:51.157Z,102432.86
2018-10-18T16:18:24.805Z,102435.00
2018-10-18T16:21:11.090Z,102432.84
2018-10-18T16:23:49.786Z,102436.01
2018-10-18T16:26:19.572Z,102448.31
2018-10-18T16:28:49.829Z,102451.25
2018-10-18T16:31:38.941Z,102455.24
2018-10-18T16:34:08.195Z,102459.78
2018-10-18T16:36:38.348Z,102462.09
2018-10-18T16:39:09.801Z,102461.34
2018-10-18T16:41:43.448Z,102457.56
2018-10-18T16:44:12.666Z,102461.41
2018-10-18T16:46:42.355Z,102462.16
2018-10-18T16:49:11.619Z,102459.50
2018-10-18T16:51:41.821Z,102465.94
2018-10-18T16:54:11.327Z,102466.17
2018-10-18T16:56:40.399Z,102464.42
2018-10-18T16:59:09.547Z,102464.59
2018-10-18T17:01:39.509Z,102474.11
2018-10-18T17:04:08.714Z,102478.30
2018-10-18T17:06:37.702Z,102478.05
2018-10-18T17:09:08.743Z,102477.27
2018-10-18T17:11:37.899Z,102478.27
2018-10-18T17:14:07.027Z,102478.16
2018-10-18T17:16:36.064Z,102483.17
2018-10-18T17:19:05.451Z,102476.23
2018-10-18T17:21:34.545Z,102484.46
2018-10-18T17:24:03.759Z,102484.49
2018-10-18T17:26:32.848Z,102485.06
2018-10-18T17:29:02.488Z,102480.08
2018-10-18T17:31:31.525Z,102483.11
2018-10-18T17:34:00.625Z,102485.94
2018-10-18T17:36:29.598Z,102483.66
2018-10-18T17:38:59.721Z,102493.44
2018-10-18T17:41:28.875Z,102491.11
2018-10-18T17:43:58.047Z,102493.81
2018-10-18T17:46:27.003Z,102483.39
2018-10-18T17:48:56.063Z,102482.16
2018-10-18T17:51:25.162Z,102482.88
2018-10-18T17:53:54.270Z,102489.77
2018-10-18T17:56:23.311Z,102499.30
2018-10-18T17:58:52.368Z,102495.42
2018-10-18T18:01:21.447Z,102498.74
2018-10-18T18:03:51.971Z,102504.77
2018-10-18T18:06:21.193Z,102497.27
2018-10-18T18:08:50.075Z,102504.77
2018-10-18T18:11:19.338Z,102506.42
2018-10-18T18:13:48.355Z,102509.66
2018-10-18T18:16:17.863Z,102514.92
2018-10-18T18:18:46.923Z,102519.27
2018-10-18T18:21:15.964Z,102522.32
2018-10-18T18:23:45.034Z,102520.23
2018-10-18T18:26:14.096Z,102528.30
2018-10-18T18:28:43.205Z,102526.79
2018-10-18T18:31:12.336Z,102534.70
2018-10-18T18:33:41.363Z,102528.34
2018-10-18T18:36:11.710Z,102539.41
2018-10-18T18:38:40.774Z,102540.94
2018-10-18T18:41:09.837Z,102551.41
2018-10-18T18:43:38.919Z,102550.06
2018-10-18T18:46:07.964Z,102551.42
2018-10-18T18:48:37.018Z,102553.84
2018-10-18T18:51:06.192Z,102550.38
2018-10-18T18:53:35.204Z,102553.13
2018-10-18T18:56:05.007Z,102551.84
2018-10-18T18:58:34.086Z,102554.89
2018-10-18T19:01:03.146Z,102553.02
2018-10-18T19:03:32.211Z,102555.77
2018-10-18T19:06:01.255Z,102563.20
2018-10-18T19:08:30.283Z,102563.83
2018-10-18T19:11:00.012Z,102558.10
2018-10-18T19:13:29.152Z,102560.67
2018-10-18T19:15:58.157Z,102557.77
2018-10-18T19:18:27.263Z,102557.95
2018-10-18T19:20:56.339Z,102560.31
2018-10-18T19:23:25.570Z,102562.41
2018-10-18T19:25:54.655Z,102563.67
2018-10-18T19:28:23.676Z,102569.89
2018-10-18T19:30:52.807Z,102574.17
2018-10-18T19:33:22.089Z,102573.70
2018-10-18T19:35:51.098Z,102571.67
2018-10-18T19:38:22.630Z,102578.66
2018-10-18T19:40:51.648Z,102575.02
2018-10-18T19:43:20.749Z,102572.45
2018-10-18T19:45:50.026Z,102574.31
2018-10-18T19:48:19.066Z,102572.76
2018-10-18T19:50:48.164Z,102582.77
2018-10-18T19:53:17.436Z,102574.23
2018-10-18T19:55:46.491Z,102580.64
2018-10-18T19:58:15.770Z,102581.64
2018-10-18T20:00:44.823Z,102586.06
2018-10-18T20:03:13.889Z,102587.94
2018-10-18T20:05:43.159Z,102587.59
2018-10-18T20:08:12.269Z,102591.16
2018-10-18T20:10:41.275Z,102586.27
2018-10-18T20:13:10.380Z,102583.73
2018-10-18T20:15:39.416Z,102585.92
2018-10-18T20:18:08.937Z,102584.89
2018-10-18T20:20:37.902Z,102585.05
2018-10-18T20:23:06.945Z,102592.36
2018-10-18T20:25:36.159Z,102596.78
2018-10-18T20:28:05.421Z,102594.25
2018-10-18T20:30:34.469Z,102596.19
2018-10-18T20:33:03.595Z,102594.09
2018-10-18T20:35:32.613Z,102603.06
2018-10-18T20:38:02.034Z,102595.18
2018-10-18T20:40:31.079Z,102591.49
2018-10-18T20:43:00.131Z,102588.15
2018-10-18T20:45:36.167Z,102594.23
2018-10-18T20:48:05.332Z,102593.45
2018-10-18T20:50:34.270Z,102597.84
2018-10-18T20:53:03.410Z,102598.83
2018-10-18T20:55:32.464Z,102599.01
2018-10-18T20:58:02.492Z,102601.71
2018-10-18T21:00:31.599Z,102597.93
2018-10-18T21:03:00.940Z,102598.13
2018-10-18T21:05:30.170Z,102591.98
2018-10-18T21:07:59.351Z,102592.86
2018-10-18T21:10:28.403Z,102596.48
2018-10-18T21:12:57.576Z,102585.41
2018-10-18T21:15:26.873Z,102587.79
2018-10-18T21:17:55.947Z,102585.26
2018-10-18T21:20:25.060Z,102594.11
2018-10-18T21:22:54.170Z,102594.12
2018-10-18T21:25:23.205Z,102606.67
2018-10-18T21:27:52.297Z,102605.87
2018-10-18T21:30:21.326Z,102609.42
2018-10-18T21:32:50.405Z,102609.14
2018-10-18T21:35:19.467Z,102607.56
2018-10-18T21:37:48.532Z,102604.29
2018-10-18T21:40:17.596Z,102603.14
2018-10-18T21:42:46.680Z,102606.72
2018-10-18T21:45:16.151Z,102607.72
2018-10-18T21:47:45.187Z,102602.79
2018-10-18T21:50:14.222Z,102601.66
2018-10-18T21:52:43.287Z,102596.73
2018-10-18T21:55:12.327Z,102596.78
2018-10-18T21:57:41.362Z,102597.88
2018-10-18T22:00:15.859Z,102600.98
2018-10-18T22:02:45.730Z,102593.51
2018-10-18T22:05:15.357Z,102597.75
2018-10-18T22:07:44.561Z,102599.15
2018-10-18T22:10:14.637Z,102593.37
2018-10-18T22:12:43.728Z,102594.71
2018-10-18T22:15:12.850Z,102600.00
2018-10-18T22:17:41.802Z,102597.98
2018-10-18T22:20:11.043Z,102596.87
2018-10-18T22:22:40.066Z,102592.63
2018-10-18T22:25:09.703Z,102589.42
2018-10-18T22:27:38.754Z,102589.52
2018-10-18T22:30:08.133Z,102586.07
2018-10-18T22:32:37.192Z,102594.64
2018-10-18T22:35:06.311Z,102593.09
2018-10-18T22:37:35.322Z,102597.39
2018-10-18T22:40:04.565Z,102591.08
2018-10-18T22:42:33.655Z,102597.05
2018-10-18T22:45:03.910Z,102592.58
2018-10-18T22:47:33.128Z,102590.82
2018-10-18T22:50:03.321Z,102587.91
2018-10-18T22:52:32.408Z,102585.87
2018-10-18T22:55:01.645Z,102582.16
2018-10-18T22:57:30.868Z,102585.14
2018-10-18T23:00:00.071Z,102577.12
2018-10-18T23:02:31.737Z,102582.84
2018-10-18T23:05:04.237Z,102578.61
2018-10-18T23:07:33.416Z,102573.45
2018-10-18T23:10:04.336Z,102586.30
2018-10-18T23:12:33.434Z,102581.69
2018-10-18T23:15:12.074Z,102582.16
2018-10-18T23:20:33.098Z,102578.86
2018-10-18T23:23:02.256Z,102582.37
2018-10-18T23:25:31.296Z,102577.74
2018-10-18T23:28:01.536Z,102579.59
2018-10-18T23:30:31.579Z,102574.92
2018-10-18T23:33:00.743Z,102574.97
2018-10-18T23:35:29.853Z,102571.15
2018-10-18T23:37:58.916Z,102564.81
2018-10-18T23:40:28.069Z,102568.66
2018-10-18T23:42:57.192Z,102569.07
2018-10-18T23:45:26.260Z,102561.09
2018-10-18T23:47:56.210Z,102569.70
2018-10-18T23:50:25.310Z,102569.37
2018-10-18T23:52:54.430Z,102563.42
2018-10-18T23:55:23.715Z,102559.22
2018-10-18T23:57:52.876Z,102562.25
